sensor_id;sensor_type;location;lat;lon;timestamp;P1;durP1;ratioP1;P2;durP2;ratioP2
72060;SDS011;59925;52.136;5.420;2023-04-03T00:00:32;3.78;;;0.40;;
72060;SDS011;59925;52.136;5.420;2023-04-03T00:02:58;2.70;;;0.73;;
72060;SDS011;59925;52.136;5.420;2023-04-03T00:05:25;2.03;;;0.40;;
72060;SDS011;59925;52.136;5.420;2023-04-03T00:07:52;1.50;;;0.40;;
72060;SDS011;59925;52.136;5.420;2023-04-03T00:10:18;1.00;;;0.30;;
72060;SDS011;59925;52.136;5.420;2023-04-03T00:12:45;1.13;;;0.40;;
72060;SDS011;59925;52.136;5.420;2023-04-03T00:15:12;1.93;;;0.63;;
72060;SDS011;59925;52.136;5.420;2023-04-03T00:17:38;2.08;;;0.50;;
72060;SDS011;59925;52.136;5.420;2023-04-03T00:20:05;2.15;;;0.50;;
72060;SDS011;59925;52.136;5.420;2023-04-03T00:22:32;2.50;;;0.50;;
72060;SDS011;59925;52.136;5.420;2023-04-03T00:24:58;1.48;;;0.57;;
72060;SDS011;59925;52.136;5.420;2023-04-03T00:27:25;1.60;;;0.30;;
72060;SDS011;59925;52.136;5.420;2023-04-03T00:29:52;5.65;;;0.70;;
72060;SDS011;59925;52.136;5.420;2023-04-03T00:32:18;1.17;;;0.30;;
72060;SDS011;59925;52.136;5.420;2023-04-03T00:34:45;2.17;;;0.50;;
72060;SDS011;59925;52.136;5.420;2023-04-03T00:37:11;1.40;;;0.40;;
72060;SDS011;59925;52.136;5.420;2023-04-03T00:39:37;4.40;;;0.63;;
72060;SDS011;59925;52.136;5.420;2023-04-03T00:42:04;3.38;;;0.60;;
72060;SDS011;59925;52.136;5.420;2023-04-03T00:47:00;1.88;;;0.60;;
72060;SDS011;59925;52.136;5.420;2023-04-03T00:49:29;1.13;;;0.38;;
72060;SDS011;59925;52.136;5.420;2023-04-03T00:51:56;5.73;;;0.57;;
72060;SDS011;59925;52.136;5.420;2023-04-03T00:54:24;2.10;;;0.60;;
72060;SDS011;59925;52.136;5.420;2023-04-03T00:56:51;0.93;;;0.40;;
72060;SDS011;59925;52.136;5.420;2023-04-03T00:59:25;2.33;;;0.60;;
72060;SDS011;59925;52.136;5.420;2023-04-03T01:01:56;4.40;;;0.70;;
72060;SDS011;59925;52.136;5.420;2023-04-03T01:04:27;1.13;;;0.53;;
72060;SDS011;59925;52.136;5.420;2023-04-03T01:06:56;2.72;;;0.70;;
72060;SDS011;59925;52.136;5.420;2023-04-03T01:09:27;2.25;;;0.50;;
72060;SDS011;59925;52.136;5.420;2023-04-03T01:11:54;2.42;;;0.65;;
72060;SDS011;59925;52.136;5.420;2023-04-03T01:14:39;1.67;;;0.90;;
72060;SDS011;59925;52.136;5.420;2023-04-03T01:17:23;1.83;;;0.60;;
72060;SDS011;59925;52.136;5.420;2023-04-03T01:19:52;2.88;;;0.60;;
72060;SDS011;59925;52.136;5.420;2023-04-03T01:22:26;4.63;;;0.70;;
72060;SDS011;59925;52.136;5.420;2023-04-03T01:25:00;1.10;;;0.60;;
72060;SDS011;59925;52.136;5.420;2023-04-03T01:27:27;3.47;;;0.60;;
72060;SDS011;59925;52.136;5.420;2023-04-03T01:29:53;1.40;;;0.60;;
72060;SDS011;59925;52.136;5.420;2023-04-03T01:32:20;2.20;;;0.50;;
72060;SDS011;59925;52.136;5.420;2023-04-03T01:34:46;3.60;;;0.70;;
72060;SDS011;59925;52.136;5.420;2023-04-03T01:37:13;3.25;;;0.60;;
72060;SDS011;59925;52.136;5.420;2023-04-03T01:39:39;2.75;;;0.65;;
72060;SDS011;59925;52.136;5.420;2023-04-03T01:42:06;3.77;;;0.60;;
72060;SDS011;59925;52.136;5.420;2023-04-03T01:44:32;1.60;;;0.40;;
72060;SDS011;59925;52.136;5.420;2023-04-03T01:46:59;2.38;;;0.60;;
72060;SDS011;59925;52.136;5.420;2023-04-03T01:49:25;1.40;;;0.65;;
72060;SDS011;59925;52.136;5.420;2023-04-03T01:51:52;7.20;;;0.88;;
72060;SDS011;59925;52.136;5.420;2023-04-03T01:54:18;3.10;;;0.70;;
72060;SDS011;59925;52.136;5.420;2023-04-03T01:56:44;1.38;;;0.77;;
72060;SDS011;59925;52.136;5.420;2023-04-03T01:59:11;3.95;;;0.68;;
72060;SDS011;59925;52.136;5.420;2023-04-03T02:01:37;4.60;;;0.80;;
72060;SDS011;59925;52.136;5.420;2023-04-03T02:04:04;3.78;;;0.75;;
72060;SDS011;59925;52.136;5.420;2023-04-03T02:06:30;4.30;;;0.60;;
72060;SDS011;59925;52.136;5.420;2023-04-03T02:08:57;1.75;;;0.60;;
72060;SDS011;59925;52.136;5.420;2023-04-03T02:11:23;2.05;;;0.95;;
72060;SDS011;59925;52.136;5.420;2023-04-03T02:13:50;2.40;;;0.55;;
72060;SDS011;59925;52.136;5.420;2023-04-03T02:16:16;2.75;;;0.70;;
72060;SDS011;59925;52.136;5.420;2023-04-03T02:18:42;2.47;;;0.70;;
72060;SDS011;59925;52.136;5.420;2023-04-03T02:21:09;3.78;;;0.70;;
72060;SDS011;59925;52.136;5.420;2023-04-03T02:23:35;2.65;;;0.80;;
72060;SDS011;59925;52.136;5.420;2023-04-03T02:26:07;3.47;;;0.60;;
72060;SDS011;59925;52.136;5.420;2023-04-03T02:28:35;2.45;;;0.60;;
72060;SDS011;59925;52.136;5.420;2023-04-03T02:31:03;3.37;;;0.90;;
72060;SDS011;59925;52.136;5.420;2023-04-03T02:33:30;2.45;;;0.73;;
72060;SDS011;59925;52.136;5.420;2023-04-03T02:35:57;3.95;;;0.80;;
72060;SDS011;59925;52.136;5.420;2023-04-03T02:38:24;3.75;;;1.10;;
72060;SDS011;59925;52.136;5.420;2023-04-03T02:40:51;4.68;;;1.38;;
72060;SDS011;59925;52.136;5.420;2023-04-03T02:43:18;2.80;;;0.70;;
72060;SDS011;59925;52.136;5.420;2023-04-03T02:45:44;2.40;;;0.65;;
72060;SDS011;59925;52.136;5.420;2023-04-03T02:48:11;2.30;;;0.50;;
72060;SDS011;59925;52.136;5.420;2023-04-03T02:50:38;6.85;;;0.95;;
72060;SDS011;59925;52.136;5.420;2023-04-03T02:53:04;3.35;;;0.75;;
72060;SDS011;59925;52.136;5.420;2023-04-03T02:55:31;3.17;;;0.60;;
72060;SDS011;59925;52.136;5.420;2023-04-03T02:57:58;2.33;;;0.60;;
72060;SDS011;59925;52.136;5.420;2023-04-03T03:00:24;3.83;;;0.88;;
72060;SDS011;59925;52.136;5.420;2023-04-03T03:02:51;2.60;;;0.80;;
72060;SDS011;59925;52.136;5.420;2023-04-03T03:05:17;2.22;;;0.73;;
72060;SDS011;59925;52.136;5.420;2023-04-03T03:07:44;4.33;;;0.90;;
72060;SDS011;59925;52.136;5.420;2023-04-03T03:10:10;3.10;;;0.85;;
72060;SDS011;59925;52.136;5.420;2023-04-03T03:12:37;2.55;;;0.82;;
72060;SDS011;59925;52.136;5.420;2023-04-03T03:15:03;6.63;;;0.85;;
72060;SDS011;59925;52.136;5.420;2023-04-03T03:17:30;1.98;;;0.90;;
72060;SDS011;59925;52.136;5.420;2023-04-03T03:19:56;3.90;;;0.70;;
72060;SDS011;59925;52.136;5.420;2023-04-03T03:22:23;2.83;;;0.73;;
72060;SDS011;59925;52.136;5.420;2023-04-03T03:24:49;2.67;;;0.70;;
72060;SDS011;59925;52.136;5.420;2023-04-03T03:27:16;3.47;;;0.95;;
72060;SDS011;59925;52.136;5.420;2023-04-03T03:29:42;3.65;;;0.70;;
72060;SDS011;59925;52.136;5.420;2023-04-03T03:32:09;1.50;;;0.67;;
72060;SDS011;59925;52.136;5.420;2023-04-03T03:34:35;5.65;;;0.70;;
72060;SDS011;59925;52.136;5.420;2023-04-03T03:37:02;3.03;;;0.70;;
72060;SDS011;59925;52.136;5.420;2023-04-03T03:39:28;4.30;;;1.10;;
72060;SDS011;59925;52.136;5.420;2023-04-03T03:41:55;4.60;;;1.42;;
72060;SDS011;59925;52.136;5.420;2023-04-03T03:44:21;3.53;;;1.30;;
72060;SDS011;59925;52.136;5.420;2023-04-03T03:46:48;2.70;;;1.27;;
72060;SDS011;59925;52.136;5.420;2023-04-03T03:49:14;1.88;;;0.77;;
72060;SDS011;59925;52.136;5.420;2023-04-03T03:51:41;2.38;;;1.00;;
72060;SDS011;59925;52.136;5.420;2023-04-03T03:54:07;3.45;;;1.10;;
72060;SDS011;59925;52.136;5.420;2023-04-03T03:56:34;1.70;;;0.80;;
72060;SDS011;59925;52.136;5.420;2023-04-03T03:59:00;2.25;;;0.52;;
72060;SDS011;59925;52.136;5.420;2023-04-03T04:01:27;3.70;;;0.70;;
72060;SDS011;59925;52.136;5.420;2023-04-03T04:03:54;4.07;;;1.10;;
72060;SDS011;59925;52.136;5.420;2023-04-03T04:06:21;2.08;;;0.85;;
72060;SDS011;59925;52.136;5.420;2023-04-03T04:08:48;5.77;;;1.40;;
72060;SDS011;59925;52.136;5.420;2023-04-03T04:11:15;3.30;;;0.82;;
72060;SDS011;59925;52.136;5.420;2023-04-03T04:13:41;3.92;;;1.08;;
72060;SDS011;59925;52.136;5.420;2023-04-03T04:16:08;3.97;;;1.10;;
72060;SDS011;59925;52.136;5.420;2023-04-03T04:18:34;2.30;;;0.85;;
72060;SDS011;59925;52.136;5.420;2023-04-03T04:21:01;4.03;;;0.83;;
72060;SDS011;59925;52.136;5.420;2023-04-03T04:23:27;2.58;;;0.90;;
72060;SDS011;59925;52.136;5.420;2023-04-03T04:25:54;3.17;;;0.88;;
72060;SDS011;59925;52.136;5.420;2023-04-03T04:28:20;6.13;;;1.52;;
72060;SDS011;59925;52.136;5.420;2023-04-03T04:30:47;4.15;;;1.50;;
72060;SDS011;59925;52.136;5.420;2023-04-03T04:33:13;2.53;;;1.00;;
72060;SDS011;59925;52.136;5.420;2023-04-03T04:35:41;7.95;;;1.20;;
72060;SDS011;59925;52.136;5.420;2023-04-03T04:38:08;3.50;;;0.98;;
72060;SDS011;59925;52.136;5.420;2023-04-03T04:40:35;4.82;;;0.95;;
72060;SDS011;59925;52.136;5.420;2023-04-03T04:43:03;3.70;;;1.17;;
72060;SDS011;59925;52.136;5.420;2023-04-03T04:45:30;4.00;;;1.20;;
72060;SDS011;59925;52.136;5.420;2023-04-03T04:47:57;2.45;;;0.80;;
72060;SDS011;59925;52.136;5.420;2023-04-03T04:50:23;3.60;;;1.10;;
72060;SDS011;59925;52.136;5.420;2023-04-03T04:52:50;3.60;;;1.05;;
72060;SDS011;59925;52.136;5.420;2023-04-03T04:55:16;4.50;;;1.40;;
72060;SDS011;59925;52.136;5.420;2023-04-03T04:57:43;6.03;;;1.33;;
72060;SDS011;59925;52.136;5.420;2023-04-03T05:00:09;5.05;;;0.90;;
72060;SDS011;59925;52.136;5.420;2023-04-03T05:02:36;3.10;;;1.00;;
72060;SDS011;59925;52.136;5.420;2023-04-03T05:05:03;9.05;;;1.40;;
72060;SDS011;59925;52.136;5.420;2023-04-03T05:07:30;3.75;;;0.88;;
72060;SDS011;59925;52.136;5.420;2023-04-03T05:09:57;3.63;;;1.00;;
72060;SDS011;59925;52.136;5.420;2023-04-03T05:12:23;3.97;;;1.10;;
72060;SDS011;59925;52.136;5.420;2023-04-03T05:14:50;2.83;;;0.90;;
72060;SDS011;59925;52.136;5.420;2023-04-03T05:17:16;4.05;;;1.00;;
72060;SDS011;59925;52.136;5.420;2023-04-03T05:19:42;5.00;;;1.25;;
72060;SDS011;59925;52.136;5.420;2023-04-03T05:22:09;4.27;;;1.10;;
72060;SDS011;59925;52.136;5.420;2023-04-03T05:24:35;2.85;;;0.90;;
72060;SDS011;59925;52.136;5.420;2023-04-03T05:27:02;5.68;;;0.80;;
72060;SDS011;59925;52.136;5.420;2023-04-03T05:29:29;6.28;;;1.20;;
72060;SDS011;59925;52.136;5.420;2023-04-03T05:31:55;3.50;;;0.68;;
72060;SDS011;59925;52.136;5.420;2023-04-03T05:34:22;3.27;;;0.80;;
72060;SDS011;59925;52.136;5.420;2023-04-03T05:36:48;12.35;;;1.10;;
72060;SDS011;59925;52.136;5.420;2023-04-03T05:39:15;1.90;;;0.60;;
72060;SDS011;59925;52.136;5.420;2023-04-03T05:41:41;5.82;;;1.40;;
72060;SDS011;59925;52.136;5.420;2023-04-03T05:44:08;6.00;;;1.02;;
72060;SDS011;59925;52.136;5.420;2023-04-03T05:46:34;4.27;;;1.30;;
72060;SDS011;59925;52.136;5.420;2023-04-03T05:49:01;5.18;;;1.13;;
72060;SDS011;59925;52.136;5.420;2023-04-03T05:51:29;4.00;;;1.27;;
72060;SDS011;59925;52.136;5.420;2023-04-03T05:54:09;2.75;;;1.00;;
72060;SDS011;59925;52.136;5.420;2023-04-03T05:56:40;2.80;;;0.77;;
72060;SDS011;59925;52.136;5.420;2023-04-03T05:59:07;2.63;;;1.10;;
72060;SDS011;59925;52.136;5.420;2023-04-03T06:01:33;2.55;;;0.93;;
72060;SDS011;59925;52.136;5.420;2023-04-03T06:04:00;6.28;;;1.13;;
72060;SDS011;59925;52.136;5.420;2023-04-03T06:06:42;3.65;;;0.77;;
72060;SDS011;59925;52.136;5.420;2023-04-03T06:09:10;4.43;;;0.95;;
72060;SDS011;59925;52.136;5.420;2023-04-03T06:11:37;3.80;;;1.17;;
72060;SDS011;59925;52.136;5.420;2023-04-03T06:14:03;3.17;;;1.23;;
72060;SDS011;59925;52.136;5.420;2023-04-03T06:16:30;2.58;;;0.80;;
72060;SDS011;59925;52.136;5.420;2023-04-03T06:18:56;4.28;;;0.90;;
72060;SDS011;59925;52.136;5.420;2023-04-03T06:21:23;2.67;;;0.75;;
72060;SDS011;59925;52.136;5.420;2023-04-03T06:23:49;5.30;;;0.90;;
72060;SDS011;59925;52.136;5.420;2023-04-03T06:26:17;3.60;;;1.17;;
72060;SDS011;59925;52.136;5.420;2023-04-03T06:28:45;2.72;;;0.93;;
72060;SDS011;59925;52.136;5.420;2023-04-03T06:31:11;4.13;;;0.95;;
72060;SDS011;59925;52.136;5.420;2023-04-03T06:33:37;3.90;;;1.20;;
72060;SDS011;59925;52.136;5.420;2023-04-03T06:36:04;3.47;;;1.10;;
72060;SDS011;59925;52.136;5.420;2023-04-03T06:38:32;2.95;;;0.88;;
72060;SDS011;59925;52.136;5.420;2023-04-03T06:40:58;3.63;;;0.93;;
72060;SDS011;59925;52.136;5.420;2023-04-03T06:43:25;4.20;;;0.80;;
72060;SDS011;59925;52.136;5.420;2023-04-03T06:45:52;3.28;;;1.15;;
72060;SDS011;59925;52.136;5.420;2023-04-03T06:48:18;5.90;;;1.30;;
72060;SDS011;59925;52.136;5.420;2023-04-03T06:50:45;6.38;;;1.20;;
72060;SDS011;59925;52.136;5.420;2023-04-03T06:53:11;4.78;;;0.93;;
72060;SDS011;59925;52.136;5.420;2023-04-03T06:55:38;2.95;;;0.90;;
72060;SDS011;59925;52.136;5.420;2023-04-03T06:58:05;4.07;;;1.30;;
72060;SDS011;59925;52.136;5.420;2023-04-03T07:00:31;3.80;;;1.23;;
72060;SDS011;59925;52.136;5.420;2023-04-03T07:02:58;4.03;;;1.27;;
72060;SDS011;59925;52.136;5.420;2023-04-03T07:05:24;4.47;;;1.00;;
72060;SDS011;59925;52.136;5.420;2023-04-03T07:07:52;4.18;;;0.90;;
72060;SDS011;59925;52.136;5.420;2023-04-03T07:10:19;3.28;;;0.88;;
72060;SDS011;59925;52.136;5.420;2023-04-03T07:12:46;7.07;;;1.13;;
72060;SDS011;59925;52.136;5.420;2023-04-03T07:15:13;3.47;;;0.90;;
72060;SDS011;59925;52.136;5.420;2023-04-03T07:17:40;5.25;;;0.93;;
72060;SDS011;59925;52.136;5.420;2023-04-03T07:20:07;2.50;;;0.90;;
72060;SDS011;59925;52.136;5.420;2023-04-03T07:22:34;3.70;;;0.80;;
72060;SDS011;59925;52.136;5.420;2023-04-03T07:25:01;1.83;;;0.70;;
72060;SDS011;59925;52.136;5.420;2023-04-03T07:27:28;3.00;;;0.82;;
72060;SDS011;59925;52.136;5.420;2023-04-03T07:29:54;3.22;;;0.80;;
72060;SDS011;59925;52.136;5.420;2023-04-03T07:32:22;2.83;;;1.00;;
72060;SDS011;59925;52.136;5.420;2023-04-03T07:34:48;5.88;;;1.00;;
72060;SDS011;59925;52.136;5.420;2023-04-03T07:37:15;8.30;;;0.83;;
72060;SDS011;59925;52.136;5.420;2023-04-03T07:39:43;1.70;;;0.80;;
72060;SDS011;59925;52.136;5.420;2023-04-03T07:42:10;2.58;;;0.73;;
72060;SDS011;59925;52.136;5.420;2023-04-03T07:44:38;2.03;;;0.70;;
72060;SDS011;59925;52.136;5.420;2023-04-03T07:47:04;3.00;;;0.82;;
72060;SDS011;59925;52.136;5.420;2023-04-03T07:49:31;1.50;;;0.53;;
72060;SDS011;59925;52.136;5.420;2023-04-03T07:51:59;2.17;;;0.90;;
72060;SDS011;59925;52.136;5.420;2023-04-03T07:54:25;3.13;;;0.40;;
72060;SDS011;59925;52.136;5.420;2023-04-03T07:56:51;2.65;;;0.98;;
72060;SDS011;59925;52.136;5.420;2023-04-03T07:59:19;3.13;;;0.75;;
72060;SDS011;59925;52.136;5.420;2023-04-03T08:01:45;3.50;;;1.00;;
72060;SDS011;59925;52.136;5.420;2023-04-03T08:04:11;1.00;;;0.73;;
72060;SDS011;59925;52.136;5.420;2023-04-03T08:06:38;4.38;;;0.90;;
72060;SDS011;59925;52.136;5.420;2023-04-03T08:09:12;3.45;;;0.68;;
72060;SDS011;59925;52.136;5.420;2023-04-03T08:11:40;2.35;;;1.17;;
72060;SDS011;59925;52.136;5.420;2023-04-03T08:14:07;3.03;;;0.67;;
72060;SDS011;59925;52.136;5.420;2023-04-03T08:16:33;1.65;;;0.70;;
72060;SDS011;59925;52.136;5.420;2023-04-03T08:19:00;2.78;;;0.80;;
72060;SDS011;59925;52.136;5.420;2023-04-03T08:21:27;2.33;;;0.50;;
72060;SDS011;59925;52.136;5.420;2023-04-03T08:23:54;2.00;;;0.52;;
72060;SDS011;59925;52.136;5.420;2023-04-03T08:26:20;4.43;;;0.60;;
72060;SDS011;59925;52.136;5.420;2023-04-03T08:28:48;2.63;;;0.52;;
72060;SDS011;59925;52.136;5.420;2023-04-03T08:31:16;4.60;;;0.90;;
72060;SDS011;59925;52.136;5.420;2023-04-03T08:33:45;2.85;;;0.55;;
72060;SDS011;59925;52.136;5.420;2023-04-03T08:36:19;3.08;;;0.70;;
72060;SDS011;59925;52.136;5.420;2023-04-03T08:38:48;1.80;;;0.80;;
72060;SDS011;59925;52.136;5.420;2023-04-03T08:44:02;3.65;;;0.90;;
72060;SDS011;59925;52.136;5.420;2023-04-03T08:46:40;3.08;;;0.60;;
72060;SDS011;59925;52.136;5.420;2023-04-03T08:49:33;2.47;;;0.40;;
72060;SDS011;59925;52.136;5.420;2023-04-03T08:52:10;2.20;;;0.40;;
72060;SDS011;59925;52.136;5.420;2023-04-03T08:54:49;2.95;;;0.52;;
72060;SDS011;59925;52.136;5.420;2023-04-03T09:02:41;1.45;;;0.40;;
72060;SDS011;59925;52.136;5.420;2023-04-03T09:08:12;1.88;;;0.30;;
72060;SDS011;59925;52.136;5.420;2023-04-03T09:10:47;2.88;;;0.50;;
72060;SDS011;59925;52.136;5.420;2023-04-03T09:13:24;2.08;;;0.30;;
72060;SDS011;59925;52.136;5.420;2023-04-03T09:15:57;1.77;;;0.30;;
72060;SDS011;59925;52.136;5.420;2023-04-03T09:18:26;1.37;;;0.30;;
72060;SDS011;59925;52.136;5.420;2023-04-03T09:21:17;2.42;;;0.30;;
72060;SDS011;59925;52.136;5.420;2023-04-03T09:24:04;1.40;;;0.20;;
72060;SDS011;59925;52.136;5.420;2023-04-03T09:26:36;1.23;;;0.30;;
72060;SDS011;59925;52.136;5.420;2023-04-03T09:29:11;0.30;;;0.20;;
72060;SDS011;59925;52.136;5.420;2023-04-03T09:31:44;1.07;;;0.30;;
72060;SDS011;59925;52.136;5.420;2023-04-03T09:34:24;1.15;;;0.30;;
72060;SDS011;59925;52.136;5.420;2023-04-03T09:36:55;1.48;;;0.40;;
72060;SDS011;59925;52.136;5.420;2023-04-03T09:39:27;2.35;;;0.20;;
72060;SDS011;59925;52.136;5.420;2023-04-03T09:44:44;0.43;;;0.20;;
72060;SDS011;59925;52.136;5.420;2023-04-03T09:47:27;1.58;;;0.25;;
72060;SDS011;59925;52.136;5.420;2023-04-03T09:52:42;0.75;;;0.20;;
72060;SDS011;59925;52.136;5.420;2023-04-03T09:55:14;0.82;;;0.30;;
72060;SDS011;59925;52.136;5.420;2023-04-03T09:57:43;1.40;;;0.37;;
72060;SDS011;59925;52.136;5.420;2023-04-03T10:00:31;0.30;;;0.20;;
72060;SDS011;59925;52.136;5.420;2023-04-03T10:03:02;0.60;;;0.20;;
72060;SDS011;59925;52.136;5.420;2023-04-03T10:05:37;0.57;;;0.20;;
72060;SDS011;59925;52.136;5.420;2023-04-03T10:10:42;1.03;;;0.30;;
72060;SDS011;59925;52.136;5.420;2023-04-03T10:13:14;1.77;;;0.25;;
72060;SDS011;59925;52.136;5.420;2023-04-03T10:21:15;2.53;;;0.20;;
72060;SDS011;59925;52.136;5.420;2023-04-03T10:23:55;2.00;;;0.30;;
72060;SDS011;59925;52.136;5.420;2023-04-03T10:26:29;1.38;;;0.30;;
72060;SDS011;59925;52.136;5.420;2023-04-03T10:37:13;3.03;;;0.70;;
72060;SDS011;59925;52.136;5.420;2023-04-03T10:50:38;1.23;;;0.30;;
72060;SDS011;59925;52.136;5.420;2023-04-03T10:56:22;0.40;;;0.30;;
72060;SDS011;59925;52.136;5.420;2023-04-03T10:58:53;1.15;;;0.20;;
72060;SDS011;59925;52.136;5.420;2023-04-03T11:01:24;1.20;;;0.40;;
72060;SDS011;59925;52.136;5.420;2023-04-03T11:03:58;0.50;;;0.30;;
72060;SDS011;59925;52.136;5.420;2023-04-03T11:06:41;3.33;;;0.40;;
72060;SDS011;59925;52.136;5.420;2023-04-03T11:09:19;0.30;;;0.20;;
72060;SDS011;59925;52.136;5.420;2023-04-03T11:11:51;1.45;;;0.30;;
72060;SDS011;59925;52.136;5.420;2023-04-03T11:14:32;2.33;;;0.55;;
72060;SDS011;59925;52.136;5.420;2023-04-03T11:17:05;1.20;;;0.30;;
72060;SDS011;59925;52.136;5.420;2023-04-03T11:19:42;0.70;;;0.30;;
72060;SDS011;59925;52.136;5.420;2023-04-03T11:22:29;0.60;;;0.20;;
72060;SDS011;59925;52.136;5.420;2023-04-03T11:31:04;0.90;;;0.30;;
72060;SDS011;59925;52.136;5.420;2023-04-03T11:35:51;1.10;;;0.40;;
72060;SDS011;59925;52.136;5.420;2023-04-03T11:38:37;0.80;;;0.30;;
72060;SDS011;59925;52.136;5.420;2023-04-03T11:41:08;1.30;;;0.50;;
72060;SDS011;59925;52.136;5.420;2023-04-03T11:43:55;1.00;;;0.30;;
72060;SDS011;59925;52.136;5.420;2023-04-03T11:46:40;0.75;;;0.30;;
72060;SDS011;59925;52.136;5.420;2023-04-03T11:55:55;2.20;;;0.30;;
72060;SDS011;59925;52.136;5.420;2023-04-03T12:16:29;1.27;;;0.40;;
72060;SDS011;59925;52.136;5.420;2023-04-03T12:19:02;1.10;;;0.30;;
72060;SDS011;59925;52.136;5.420;2023-04-03T12:26:48;1.10;;;0.30;;
72060;SDS011;59925;52.136;5.420;2023-04-03T12:37:54;1.10;;;0.30;;
72060;SDS011;59925;52.136;5.420;2023-04-03T12:43:20;1.17;;;0.30;;
72060;SDS011;59925;52.136;5.420;2023-04-03T12:46:18;3.10;;;0.52;;
72060;SDS011;59925;52.136;5.420;2023-04-03T12:48:51;1.45;;;0.30;;
72060;SDS011;59925;52.136;5.420;2023-04-03T12:51:25;1.63;;;0.40;;
72060;SDS011;59925;52.136;5.420;2023-04-03T12:54:01;2.00;;;0.38;;
72060;SDS011;59925;52.136;5.420;2023-04-03T12:56:30;1.70;;;0.30;;
72060;SDS011;59925;52.136;5.420;2023-04-03T12:59:15;1.15;;;0.40;;
72060;SDS011;59925;52.136;5.420;2023-04-03T13:01:55;2.75;;;0.40;;
72060;SDS011;59925;52.136;5.420;2023-04-03T13:04:30;1.27;;;0.30;;
72060;SDS011;59925;52.136;5.420;2023-04-03T13:06:58;1.33;;;0.52;;
72060;SDS011;59925;52.136;5.420;2023-04-03T13:09:25;2.63;;;0.30;;
72060;SDS011;59925;52.136;5.420;2023-04-03T13:14:54;2.47;;;0.43;;
72060;SDS011;59925;52.136;5.420;2023-04-03T13:17:24;0.63;;;0.40;;
72060;SDS011;59925;52.136;5.420;2023-04-03T13:19:51;1.33;;;0.35;;
72060;SDS011;59925;52.136;5.420;2023-04-03T13:25:06;1.38;;;0.50;;
72060;SDS011;59925;52.136;5.420;2023-04-03T13:27:35;1.98;;;0.40;;
72060;SDS011;59925;52.136;5.420;2023-04-03T13:30:03;2.63;;;0.50;;
72060;SDS011;59925;52.136;5.420;2023-04-03T13:32:30;1.23;;;0.40;;
72060;SDS011;59925;52.136;5.420;2023-04-03T13:34:58;2.75;;;0.40;;
72060;SDS011;59925;52.136;5.420;2023-04-03T13:37:52;1.25;;;0.43;;
72060;SDS011;59925;52.136;5.420;2023-04-03T13:40:22;1.13;;;0.32;;
72060;SDS011;59925;52.136;5.420;2023-04-03T13:42:58;2.23;;;0.50;;
72060;SDS011;59925;52.136;5.420;2023-04-03T13:45:29;1.45;;;0.50;;
72060;SDS011;59925;52.136;5.420;2023-04-03T13:48:08;1.63;;;0.60;;
72060;SDS011;59925;52.136;5.420;2023-04-03T13:50:51;1.13;;;0.40;;
72060;SDS011;59925;52.136;5.420;2023-04-03T13:53:23;3.28;;;0.47;;
72060;SDS011;59925;52.136;5.420;2023-04-03T13:58:29;1.27;;;0.45;;
72060;SDS011;59925;52.136;5.420;2023-04-03T14:06:23;2.13;;;0.55;;
72060;SDS011;59925;52.136;5.420;2023-04-03T14:08:50;2.23;;;0.53;;
72060;SDS011;59925;52.136;5.420;2023-04-03T14:11:19;2.53;;;0.52;;
72060;SDS011;59925;52.136;5.420;2023-04-03T14:13:49;1.73;;;0.43;;
72060;SDS011;59925;52.136;5.420;2023-04-03T14:16:18;2.15;;;0.52;;
72060;SDS011;59925;52.136;5.420;2023-04-03T14:18:47;1.65;;;0.40;;
72060;SDS011;59925;52.136;5.420;2023-04-03T14:21:17;2.00;;;0.50;;
72060;SDS011;59925;52.136;5.420;2023-04-03T14:23:45;1.30;;;0.50;;
72060;SDS011;59925;52.136;5.420;2023-04-03T14:26:16;2.40;;;0.52;;
72060;SDS011;59925;52.136;5.420;2023-04-03T14:28:47;2.28;;;0.50;;
72060;SDS011;59925;52.136;5.420;2023-04-03T14:31:15;1.88;;;0.70;;
72060;SDS011;59925;52.136;5.420;2023-04-03T14:33:42;3.97;;;0.60;;
72060;SDS011;59925;52.136;5.420;2023-04-03T14:36:14;1.60;;;0.50;;
72060;SDS011;59925;52.136;5.420;2023-04-03T14:38:46;2.10;;;0.50;;
72060;SDS011;59925;52.136;5.420;2023-04-03T14:41:16;1.52;;;0.50;;
72060;SDS011;59925;52.136;5.420;2023-04-03T14:43:44;3.30;;;0.70;;
72060;SDS011;59925;52.136;5.420;2023-04-03T14:46:15;2.40;;;0.90;;
72060;SDS011;59925;52.136;5.420;2023-04-03T14:48:45;1.80;;;0.60;;
72060;SDS011;59925;52.136;5.420;2023-04-03T14:51:12;2.60;;;0.57;;
72060;SDS011;59925;52.136;5.420;2023-04-03T14:53:40;1.45;;;0.40;;
72060;SDS011;59925;52.136;5.420;2023-04-03T14:56:12;2.22;;;0.50;;
72060;SDS011;59925;52.136;5.420;2023-04-03T14:58:42;2.27;;;0.73;;
72060;SDS011;59925;52.136;5.420;2023-04-03T15:01:10;2.03;;;0.68;;
72060;SDS011;59925;52.136;5.420;2023-04-03T15:03:38;3.65;;;0.60;;
72060;SDS011;59925;52.136;5.420;2023-04-03T15:06:05;2.00;;;0.40;;
72060;SDS011;59925;52.136;5.420;2023-04-03T15:08:31;2.35;;;0.90;;
72060;SDS011;59925;52.136;5.420;2023-04-03T15:10:58;1.80;;;0.60;;
72060;SDS011;59925;52.136;5.420;2023-04-03T15:13:24;1.20;;;0.40;;
72060;SDS011;59925;52.136;5.420;2023-04-03T15:15:51;1.63;;;0.50;;
72060;SDS011;59925;52.136;5.420;2023-04-03T15:18:22;2.90;;;0.60;;
72060;SDS011;59925;52.136;5.420;2023-04-03T15:20:56;3.00;;;0.90;;
72060;SDS011;59925;52.136;5.420;2023-04-03T15:23:22;1.73;;;0.50;;
72060;SDS011;59925;52.136;5.420;2023-04-03T15:25:52;2.67;;;0.73;;
72060;SDS011;59925;52.136;5.420;2023-04-03T15:28:36;2.95;;;0.60;;
72060;SDS011;59925;52.136;5.420;2023-04-03T15:31:05;3.95;;;0.82;;
72060;SDS011;59925;52.136;5.420;2023-04-03T15:33:32;1.30;;;0.50;;
72060;SDS011;59925;52.136;5.420;2023-04-03T15:36:00;2.47;;;0.70;;
72060;SDS011;59925;52.136;5.420;2023-04-03T15:38:32;2.45;;;0.50;;
72060;SDS011;59925;52.136;5.420;2023-04-03T15:40:59;1.90;;;0.70;;
72060;SDS011;59925;52.136;5.420;2023-04-03T15:43:26;3.15;;;0.60;;
72060;SDS011;59925;52.136;5.420;2023-04-03T15:45:54;2.15;;;0.50;;
72060;SDS011;59925;52.136;5.420;2023-04-03T15:48:24;2.77;;;0.60;;
72060;SDS011;59925;52.136;5.420;2023-04-03T15:50:51;2.67;;;0.70;;
72060;SDS011;59925;52.136;5.420;2023-04-03T15:53:17;2.90;;;0.57;;
72060;SDS011;59925;52.136;5.420;2023-04-03T15:55:44;2.90;;;0.73;;
72060;SDS011;59925;52.136;5.420;2023-04-03T15:58:10;2.17;;;0.60;;
72060;SDS011;59925;52.136;5.420;2023-04-03T16:00:37;3.47;;;0.70;;
72060;SDS011;59925;52.136;5.420;2023-04-03T16:03:05;2.42;;;0.52;;
72060;SDS011;59925;52.136;5.420;2023-04-03T16:05:36;1.80;;;0.40;;
72060;SDS011;59925;52.136;5.420;2023-04-03T16:08:04;2.83;;;0.70;;
72060;SDS011;59925;52.136;5.420;2023-04-03T16:10:32;3.30;;;0.65;;
72060;SDS011;59925;52.136;5.420;2023-04-03T16:13:00;4.77;;;0.83;;
72060;SDS011;59925;52.136;5.420;2023-04-03T16:15:26;4.00;;;0.80;;
72060;SDS011;59925;52.136;5.420;2023-04-03T16:17:53;2.58;;;0.45;;
72060;SDS011;59925;52.136;5.420;2023-04-03T16:20:20;3.10;;;1.02;;
72060;SDS011;59925;52.136;5.420;2023-04-03T16:22:48;2.30;;;0.70;;
72060;SDS011;59925;52.136;5.420;2023-04-03T16:25:15;3.07;;;0.60;;
72060;SDS011;59925;52.136;5.420;2023-04-03T16:27:42;5.93;;;1.00;;
72060;SDS011;59925;52.136;5.420;2023-04-03T16:30:08;3.38;;;0.60;;
72060;SDS011;59925;52.136;5.420;2023-04-03T16:32:35;2.35;;;0.80;;
72060;SDS011;59925;52.136;5.420;2023-04-03T16:35:05;2.90;;;0.82;;
72060;SDS011;59925;52.136;5.420;2023-04-03T16:37:32;3.40;;;0.50;;
72060;SDS011;59925;52.136;5.420;2023-04-03T16:39:58;4.10;;;0.68;;
72060;SDS011;59925;52.136;5.420;2023-04-03T16:42:25;4.18;;;0.75;;
72060;SDS011;59925;52.136;5.420;2023-04-03T16:44:51;1.65;;;0.55;;
72060;SDS011;59925;52.136;5.420;2023-04-03T16:47:18;3.05;;;0.60;;
72060;SDS011;59925;52.136;5.420;2023-04-03T16:49:45;2.53;;;0.70;;
72060;SDS011;59925;52.136;5.420;2023-04-03T16:52:13;2.50;;;0.52;;